sensor_id;sensor_type;location;lat;lon;timestamp;P1;durP1;ratioP1;P2;durP2;ratioP2
51985;SDS011;38002;53.296;6.600;2022-08-19T00:02:13;5.93;;;5.43;;
51985;SDS011;38002;53.296;6.600;2022-08-19T00:07:13;8.45;;;6.70;;
51985;SDS011;38002;53.296;6.600;2022-08-19T00:12:14;8.47;;;6.63;;
51985;SDS011;38002;53.296;6.600;2022-08-19T00:17:15;6.00;;;5.40;;
51985;SDS011;38002;53.296;6.600;2022-08-19T00:22:15;7.22;;;6.50;;
51985;SDS011;38002;53.296;6.600;2022-08-19T00:27:18;7.40;;;6.50;;
51985;SDS011;38002;53.296;6.600;2022-08-19T00:32:21;7.55;;;6.38;;
51985;SDS011;38002;53.296;6.600;2022-08-19T00:37:22;7.63;;;6.75;;
51985;SDS011;38002;53.296;6.600;2022-08-19T00:42:25;8.15;;;5.38;;
51985;SDS011;38002;53.296;6.600;2022-08-19T00:47:28;8.20;;;6.90;;
51985;SDS011;38002;53.296;6.600;2022-08-19T00:52:32;12.07;;;7.60;;
51985;SDS011;38002;53.296;6.600;2022-08-19T00:57:36;7.45;;;6.55;;
51985;SDS011;38002;53.296;6.600;2022-08-19T01:02:40;8.70;;;6.95;;
51985;SDS011;38002;53.296;6.600;2022-08-19T01:07:42;10.32;;;7.03;;
51985;SDS011;38002;53.296;6.600;2022-08-19T01:12:43;8.50;;;6.30;;
51985;SDS011;38002;53.296;6.600;2022-08-19T01:17:44;9.33;;;7.20;;
51985;SDS011;38002;53.296;6.600;2022-08-19T01:22:47;8.48;;;7.68;;
51985;SDS011;38002;53.296;6.600;2022-08-19T01:27:49;7.47;;;6.40;;
51985;SDS011;38002;53.296;6.600;2022-08-19T01:32:51;8.67;;;7.37;;
51985;SDS011;38002;53.296;6.600;2022-08-19T01:37:54;9.90;;;7.25;;
51985;SDS011;38002;53.296;6.600;2022-08-19T01:42:57;6.93;;;6.22;;
51985;SDS011;38002;53.296;6.600;2022-08-19T01:47:57;12.68;;;8.52;;
51985;SDS011;38002;53.296;6.600;2022-08-19T01:52:58;10.48;;;6.25;;
51985;SDS011;38002;53.296;6.600;2022-08-19T01:58:00;11.77;;;8.05;;
51985;SDS011;38002;53.296;6.600;2022-08-19T02:03:05;9.25;;;7.57;;
51985;SDS011;38002;53.296;6.600;2022-08-19T02:08:07;10.23;;;7.73;;
51985;SDS011;38002;53.296;6.600;2022-08-19T02:13:09;12.15;;;8.48;;
51985;SDS011;38002;53.296;6.600;2022-08-19T02:23:11;9.27;;;6.97;;
51985;SDS011;38002;53.296;6.600;2022-08-19T02:28:12;6.55;;;5.78;;
51985;SDS011;38002;53.296;6.600;2022-08-19T02:33:14;10.45;;;7.03;;
51985;SDS011;38002;53.296;6.600;2022-08-19T02:38:15;9.40;;;5.72;;
51985;SDS011;38002;53.296;6.600;2022-08-19T02:43:28;6.50;;;5.88;;
51985;SDS011;38002;53.296;6.600;2022-08-19T02:48:30;5.60;;;5.05;;
51985;SDS011;38002;53.296;6.600;2022-08-19T02:58:33;12.43;;;6.93;;
51985;SDS011;38002;53.296;6.600;2022-08-19T03:03:33;8.35;;;6.78;;
51985;SDS011;38002;53.296;6.600;2022-08-19T03:08:34;8.07;;;6.68;;
51985;SDS011;38002;53.296;6.600;2022-08-19T03:13:35;8.48;;;6.60;;
51985;SDS011;38002;53.296;6.600;2022-08-19T03:18:35;8.80;;;5.95;;
51985;SDS011;38002;53.296;6.600;2022-08-19T03:23:36;10.13;;;6.30;;
51985;SDS011;38002;53.296;6.600;2022-08-19T03:28:37;10.45;;;6.82;;
51985;SDS011;38002;53.296;6.600;2022-08-19T03:33:37;8.27;;;7.22;;
51985;SDS011;38002;53.296;6.600;2022-08-19T03:38:41;7.77;;;6.60;;
51985;SDS011;38002;53.296;6.600;2022-08-19T03:43:44;11.55;;;7.25;;
51985;SDS011;38002;53.296;6.600;2022-08-19T03:48:49;9.27;;;7.10;;
51985;SDS011;38002;53.296;6.600;2022-08-19T03:53:55;12.07;;;6.07;;
51985;SDS011;38002;53.296;6.600;2022-08-19T03:58:56;9.18;;;6.18;;
51985;SDS011;38002;53.296;6.600;2022-08-19T04:03:58;9.38;;;6.38;;
51985;SDS011;38002;53.296;6.600;2022-08-19T04:14:01;9.50;;;5.93;;
51985;SDS011;38002;53.296;6.600;2022-08-19T04:19:03;7.93;;;6.10;;
51985;SDS011;38002;53.296;6.600;2022-08-19T04:24:05;6.13;;;5.53;;
51985;SDS011;38002;53.296;6.600;2022-08-19T04:29:07;12.48;;;7.07;;
51985;SDS011;38002;53.296;6.600;2022-08-19T04:34:10;6.30;;;5.68;;
51985;SDS011;38002;53.296;6.600;2022-08-19T04:39:13;7.20;;;4.93;;
51985;SDS011;38002;53.296;6.600;2022-08-19T04:44:16;6.05;;;5.45;;
51985;SDS011;38002;53.296;6.600;2022-08-19T04:49:20;8.90;;;6.57;;
51985;SDS011;38002;53.296;6.600;2022-08-19T04:54:23;6.82;;;6.13;;
51985;SDS011;38002;53.296;6.600;2022-08-19T04:59:25;8.30;;;6.85;;
51985;SDS011;38002;53.296;6.600;2022-08-19T05:04:25;9.20;;;6.55;;
51985;SDS011;38002;53.296;6.600;2022-08-19T05:09:25;9.70;;;5.57;;
51985;SDS011;38002;53.296;6.600;2022-08-19T05:14:26;7.53;;;6.50;;
51985;SDS011;38002;53.296;6.600;2022-08-19T05:19:27;10.07;;;7.57;;
51985;SDS011;38002;53.296;6.600;2022-08-19T05:24:46;9.32;;;7.40;;
51985;SDS011;38002;53.296;6.600;2022-08-19T05:29:46;9.32;;;7.28;;
51985;SDS011;38002;53.296;6.600;2022-08-19T05:34:46;8.75;;;6.55;;
51985;SDS011;38002;53.296;6.600;2022-08-19T05:39:47;8.18;;;6.38;;
51985;SDS011;38002;53.296;6.600;2022-08-19T05:44:49;13.30;;;7.75;;
51985;SDS011;38002;53.296;6.600;2022-08-19T05:49:50;9.55;;;7.03;;
51985;SDS011;38002;53.296;6.600;2022-08-19T05:54:51;11.95;;;7.70;;
51985;SDS011;38002;53.296;6.600;2022-08-19T05:59:52;13.63;;;8.13;;
51985;SDS011;38002;53.296;6.600;2022-08-19T06:04:53;12.50;;;8.68;;
51985;SDS011;38002;53.296;6.600;2022-08-19T06:09:54;12.52;;;8.02;;
51985;SDS011;38002;53.296;6.600;2022-08-19T06:14:55;21.27;;;11.53;;
51985;SDS011;38002;53.296;6.600;2022-08-19T06:19:56;18.67;;;11.48;;
51985;SDS011;38002;53.296;6.600;2022-08-19T06:24:56;18.83;;;9.73;;
51985;SDS011;38002;53.296;6.600;2022-08-19T06:29:57;14.80;;;9.45;;
51985;SDS011;38002;53.296;6.600;2022-08-19T06:34:57;20.80;;;11.88;;
51985;SDS011;38002;53.296;6.600;2022-08-19T06:39:58;19.48;;;11.75;;
51985;SDS011;38002;53.296;6.600;2022-08-19T06:44:58;17.88;;;10.82;;
51985;SDS011;38002;53.296;6.600;2022-08-19T06:49:59;15.30;;;10.67;;
51985;SDS011;38002;53.296;6.600;2022-08-19T06:55:02;14.30;;;10.43;;
51985;SDS011;38002;53.296;6.600;2022-08-19T07:00:04;14.82;;;10.30;;
51985;SDS011;38002;53.296;6.600;2022-08-19T07:05:08;14.43;;;9.93;;
51985;SDS011;38002;53.296;6.600;2022-08-19T07:10:09;20.73;;;11.90;;
51985;SDS011;38002;53.296;6.600;2022-08-19T07:15:10;13.00;;;9.57;;
51985;SDS011;38002;53.296;6.600;2022-08-19T07:20:11;16.77;;;10.00;;
51985;SDS011;38002;53.296;6.600;2022-08-19T07:25:11;14.13;;;9.83;;
51985;SDS011;38002;53.296;6.600;2022-08-19T07:30:13;13.18;;;10.95;;
51985;SDS011;38002;53.296;6.600;2022-08-19T07:35:14;19.80;;;11.47;;
51985;SDS011;38002;53.296;6.600;2022-08-19T07:40:14;18.03;;;10.70;;
51985;SDS011;38002;53.296;6.600;2022-08-19T07:45:14;15.37;;;12.10;;
51985;SDS011;38002;53.296;6.600;2022-08-19T07:50:16;8.83;;;7.63;;
51985;SDS011;38002;53.296;6.600;2022-08-19T07:55:21;13.93;;;10.70;;
51985;SDS011;38002;53.296;6.600;2022-08-19T08:00:24;10.35;;;8.77;;
51985;SDS011;38002;53.296;6.600;2022-08-19T08:05:25;15.17;;;9.83;;
51985;SDS011;38002;53.296;6.600;2022-08-19T08:10:44;11.43;;;9.55;;
51985;SDS011;38002;53.296;6.600;2022-08-19T08:15:44;12.80;;;10.53;;
51985;SDS011;38002;53.296;6.600;2022-08-19T08:20:45;8.83;;;7.67;;
51985;SDS011;38002;53.296;6.600;2022-08-19T08:25:45;16.53;;;12.17;;
51985;SDS011;38002;53.296;6.600;2022-08-19T08:30:48;15.02;;;10.68;;
51985;SDS011;38002;53.296;6.600;2022-08-19T08:35:49;12.48;;;7.85;;
51985;SDS011;38002;53.296;6.600;2022-08-19T08:40:53;12.33;;;8.13;;
51985;SDS011;38002;53.296;6.600;2022-08-19T08:46:04;8.80;;;7.90;;
51985;SDS011;38002;53.296;6.600;2022-08-19T08:51:14;7.95;;;7.15;;
51985;SDS011;38002;53.296;6.600;2022-08-19T08:56:21;8.93;;;8.02;;
51985;SDS011;38002;53.296;6.600;2022-08-19T09:01:22;9.48;;;8.38;;
51985;SDS011;38002;53.296;6.600;2022-08-19T09:06:29;10.93;;;9.67;;
51985;SDS011;38002;53.296;6.600;2022-08-19T09:11:44;10.95;;;8.45;;
51985;SDS011;38002;53.296;6.600;2022-08-19T09:16:56;9.32;;;8.38;;
51985;SDS011;38002;53.296;6.600;2022-08-19T09:21:57;12.85;;;7.40;;
51985;SDS011;38002;53.296;6.600;2022-08-19T09:27:00;10.63;;;9.07;;
51985;SDS011;38002;53.296;6.600;2022-08-19T09:32:01;8.70;;;7.83;;
51985;SDS011;38002;53.296;6.600;2022-08-19T09:37:01;7.83;;;7.13;;
51985;SDS011;38002;53.296;6.600;2022-08-19T09:52:06;8.70;;;7.73;;
51985;SDS011;38002;53.296;6.600;2022-08-19T09:57:08;10.30;;;9.40;;
51985;SDS011;38002;53.296;6.600;2022-08-19T10:02:09;9.23;;;8.27;;
51985;SDS011;38002;53.296;6.600;2022-08-19T10:07:11;9.90;;;8.90;;
51985;SDS011;38002;53.296;6.600;2022-08-19T10:12:11;10.50;;;9.50;;
51985;SDS011;38002;53.296;6.600;2022-08-19T10:17:12;9.23;;;8.33;;
51985;SDS011;38002;53.296;6.600;2022-08-19T10:22:12;9.43;;;7.73;;
51985;SDS011;38002;53.296;6.600;2022-08-19T10:27:13;10.10;;;9.07;;
51985;SDS011;38002;53.296;6.600;2022-08-19T10:32:14;9.82;;;8.55;;
51985;SDS011;38002;53.296;6.600;2022-08-19T10:37:15;10.00;;;9.00;;
51985;SDS011;38002;53.296;6.600;2022-08-19T10:42:19;8.82;;;7.97;;
51985;SDS011;38002;53.296;6.600;2022-08-19T10:47:20;10.00;;;9.02;;
51985;SDS011;38002;53.296;6.600;2022-08-19T10:52:22;7.43;;;6.80;;
51985;SDS011;38002;53.296;6.600;2022-08-19T10:57:35;12.23;;;10.90;;
51985;SDS011;38002;53.296;6.600;2022-08-19T11:07:36;9.75;;;7.03;;
51985;SDS011;38002;53.296;6.600;2022-08-19T11:12:38;8.82;;;8.02;;
51985;SDS011;38002;53.296;6.600;2022-08-19T11:17:39;10.20;;;8.50;;
51985;SDS011;38002;53.296;6.600;2022-08-19T11:22:41;10.88;;;9.30;;
51985;SDS011;38002;53.296;6.600;2022-08-19T11:32:44;13.40;;;7.93;;
51985;SDS011;38002;53.296;6.600;2022-08-19T11:42:45;9.93;;;8.97;;
51985;SDS011;38002;53.296;6.600;2022-08-19T11:47:57;9.50;;;8.50;;
51985;SDS011;38002;53.296;6.600;2022-08-19T11:52:58;8.15;;;7.43;;
51985;SDS011;38002;53.296;6.600;2022-08-19T11:57:58;8.65;;;7.63;;
51985;SDS011;38002;53.296;6.600;2022-08-19T12:07:59;11.73;;;10.60;;
51985;SDS011;38002;53.296;6.600;2022-08-19T12:18:00;13.00;;;11.63;;
51985;SDS011;38002;53.296;6.600;2022-08-19T12:28:01;11.00;;;9.73;;
51985;SDS011;38002;53.296;6.600;2022-08-19T12:33:02;8.52;;;7.72;;
51985;SDS011;38002;53.296;6.600;2022-08-19T12:43:03;12.63;;;11.33;;
51985;SDS011;38002;53.296;6.600;2022-08-19T12:48:04;13.00;;;11.52;;
51985;SDS011;38002;53.296;6.600;2022-08-19T12:58:05;12.77;;;11.33;;
51985;SDS011;38002;53.296;6.600;2022-08-19T13:08:06;16.63;;;10.27;;
51985;SDS011;38002;53.296;6.600;2022-08-19T13:13:08;11.30;;;9.77;;
51985;SDS011;38002;53.296;6.600;2022-08-19T13:18:09;14.50;;;9.43;;
51985;SDS011;38002;53.296;6.600;2022-08-19T13:23:11;20.10;;;10.38;;
51985;SDS011;38002;53.296;6.600;2022-08-19T13:28:11;14.40;;;10.73;;
51985;SDS011;38002;53.296;6.600;2022-08-19T13:38:15;16.38;;;12.13;;
51985;SDS011;38002;53.296;6.600;2022-08-19T13:43:19;14.88;;;11.80;;
51985;SDS011;38002;53.296;6.600;2022-08-19T13:48:22;16.63;;;12.43;;
51985;SDS011;38002;53.296;6.600;2022-08-19T13:53:23;16.33;;;12.13;;
51985;SDS011;38002;53.296;6.600;2022-08-19T13:58:24;13.80;;;11.10;;
51985;SDS011;38002;53.296;6.600;2022-08-19T14:03:25;15.37;;;10.17;;
51985;SDS011;38002;53.296;6.600;2022-08-19T14:08:26;14.18;;;11.50;;
51985;SDS011;38002;53.296;6.600;2022-08-19T14:13:28;15.10;;;10.38;;
51985;SDS011;38002;53.296;6.600;2022-08-19T14:18:28;16.30;;;11.83;;
51985;SDS011;38002;53.296;6.600;2022-08-19T14:23:29;16.83;;;10.50;;
51985;SDS011;38002;53.296;6.600;2022-08-19T14:28:29;18.30;;;8.80;;
51985;SDS011;38002;53.296;6.600;2022-08-19T14:33:30;14.88;;;9.23;;
51985;SDS011;38002;53.296;6.600;2022-08-19T14:38:32;9.05;;;7.35;;
51985;SDS011;38002;53.296;6.600;2022-08-19T14:43:33;11.93;;;8.77;;
51985;SDS011;38002;53.296;6.600;2022-08-19T14:53:36;11.50;;;9.68;;
51985;SDS011;38002;53.296;6.600;2022-08-19T14:58:37;10.90;;;8.98;;
51985;SDS011;38002;53.296;6.600;2022-08-19T15:03:40;9.68;;;8.68;;
51985;SDS011;38002;53.296;6.600;2022-08-19T15:08:41;12.15;;;8.73;;
51985;SDS011;38002;53.296;6.600;2022-08-19T15:13:44;10.20;;;8.40;;
51985;SDS011;38002;53.296;6.600;2022-08-19T15:18:48;10.98;;;7.93;;
51985;SDS011;38002;53.296;6.600;2022-08-19T15:23:50;11.40;;;9.40;;
51985;SDS011;38002;53.296;6.600;2022-08-19T15:28:51;9.02;;;6.97;;
51985;SDS011;38002;53.296;6.600;2022-08-19T15:33:52;11.25;;;8.38;;
51985;SDS011;38002;53.296;6.600;2022-08-19T15:38:55;8.32;;;7.53;;
51985;SDS011;38002;53.296;6.600;2022-08-19T15:49:09;8.93;;;6.45;;
51985;SDS011;38002;53.296;6.600;2022-08-19T15:54:14;11.18;;;7.80;;
51985;SDS011;38002;53.296;6.600;2022-08-19T15:59:20;16.98;;;8.07;;
51985;SDS011;38002;53.296;6.600;2022-08-19T16:04:39;12.77;;;8.52;;
51985;SDS011;38002;53.296;6.600;2022-08-19T16:09:58;21.67;;;9.82;;
51985;SDS011;38002;53.296;6.600;2022-08-19T16:14:58;9.07;;;7.23;;
51985;SDS011;38002;53.296;6.600;2022-08-19T16:19:59;11.07;;;7.83;;
51985;SDS011;38002;53.296;6.600;2022-08-19T16:24:59;10.10;;;8.23;;
51985;SDS011;38002;53.296;6.600;2022-08-19T16:30:02;10.77;;;9.68;;
51985;SDS011;38002;53.296;6.600;2022-08-19T16:35:04;9.80;;;7.65;;
51985;SDS011;38002;53.296;6.600;2022-08-19T16:40:05;8.55;;;5.88;;
51985;SDS011;38002;53.296;6.600;2022-08-19T16:45:08;8.57;;;7.00;;
51985;SDS011;38002;53.296;6.600;2022-08-19T16:50:09;8.88;;;7.10;;
51985;SDS011;38002;53.296;6.600;2022-08-19T16:55:09;12.40;;;6.90;;
51985;SDS011;38002;53.296;6.600;2022-08-19T17:00:10;12.43;;;9.60;;
51985;SDS011;38002;53.296;6.600;2022-08-19T17:05:12;15.38;;;8.15;;
51985;SDS011;38002;53.296;6.600;2022-08-19T17:10:17;9.75;;;7.63;;
51985;SDS011;38002;53.296;6.600;2022-08-19T17:15:20;14.95;;;12.18;;
51985;SDS011;38002;53.296;6.600;2022-08-19T17:20:21;17.27;;;13.20;;
51985;SDS011;38002;53.296;6.600;2022-08-19T17:25:22;22.83;;;13.13;;
51985;SDS011;38002;53.296;6.600;2022-08-19T17:30:23;15.95;;;11.30;;
51985;SDS011;38002;53.296;6.600;2022-08-19T17:35:24;16.00;;;12.23;;
51985;SDS011;38002;53.296;6.600;2022-08-19T17:40:26;18.40;;;12.77;;
51985;SDS011;38002;53.296;6.600;2022-08-19T17:45:26;16.37;;;11.50;;
51985;SDS011;38002;53.296;6.600;2022-08-19T17:50:28;13.57;;;12.15;;
51985;SDS011;38002;53.296;6.600;2022-08-19T17:55:28;11.23;;;9.05;;
51985;SDS011;38002;53.296;6.600;2022-08-19T18:00:29;19.02;;;12.68;;
51985;SDS011;38002;53.296;6.600;2022-08-19T18:05:33;14.45;;;10.43;;
51985;SDS011;38002;53.296;6.600;2022-08-19T18:10:39;24.02;;;17.55;;
51985;SDS011;38002;53.296;6.600;2022-08-19T18:15:40;20.27;;;14.23;;
51985;SDS011;38002;53.296;6.600;2022-08-19T18:20:42;19.90;;;13.35;;
51985;SDS011;38002;53.296;6.600;2022-08-19T18:25:43;15.25;;;11.20;;
51985;SDS011;38002;53.296;6.600;2022-08-19T18:30:43;13.13;;;9.60;;
51985;SDS011;38002;53.296;6.600;2022-08-19T18:35:45;12.52;;;9.27;;
51985;SDS011;38002;53.296;6.600;2022-08-19T18:40:48;11.52;;;9.27;;
51985;SDS011;38002;53.296;6.600;2022-08-19T18:46:07;9.60;;;7.97;;
51985;SDS011;38002;53.296;6.600;2022-08-19T18:51:26;7.95;;;7.13;;
51985;SDS011;38002;53.296;6.600;2022-08-19T18:56:29;7.85;;;7.05;;
51985;SDS011;38002;53.296;6.600;2022-08-19T19:01:35;12.23;;;8.93;;
51985;SDS011;38002;53.296;6.600;2022-08-19T19:06:39;12.23;;;8.05;;
51985;SDS011;38002;53.296;6.600;2022-08-19T19:11:42;7.63;;;6.75;;
51985;SDS011;38002;53.296;6.600;2022-08-19T19:16:44;8.82;;;7.55;;
51985;SDS011;38002;53.296;6.600;2022-08-19T19:21:46;7.87;;;7.07;;
51985;SDS011;38002;53.296;6.600;2022-08-19T19:26:49;7.25;;;6.53;;
51985;SDS011;38002;53.296;6.600;2022-08-19T19:31:51;7.63;;;6.70;;
51985;SDS011;38002;53.296;6.600;2022-08-19T19:36:52;8.38;;;7.53;;
51985;SDS011;38002;53.296;6.600;2022-08-19T19:41:52;8.57;;;7.67;;
51985;SDS011;38002;53.296;6.600;2022-08-19T19:46:53;10.43;;;7.05;;
51985;SDS011;38002;53.296;6.600;2022-08-19T19:56:55;6.47;;;5.93;;
51985;SDS011;38002;53.296;6.600;2022-08-19T20:01:55;9.53;;;8.43;;
51985;SDS011;38002;53.296;6.600;2022-08-19T20:06:56;9.47;;;7.67;;
51985;SDS011;38002;53.296;6.600;2022-08-19T20:11:56;8.87;;;7.27;;
51985;SDS011;38002;53.296;6.600;2022-08-19T20:16:57;7.17;;;6.47;;
51985;SDS011;38002;53.296;6.600;2022-08-19T20:21:59;12.20;;;10.90;;
51985;SDS011;38002;53.296;6.600;2022-08-19T20:27:00;18.08;;;14.18;;
51985;SDS011;38002;53.296;6.600;2022-08-19T20:32:01;17.70;;;14.90;;
51985;SDS011;38002;53.296;6.600;2022-08-19T20:37:02;8.60;;;7.80;;
51985;SDS011;38002;53.296;6.600;2022-08-19T20:42:02;8.10;;;7.23;;
51985;SDS011;38002;53.296;6.600;2022-08-19T20:47:03;10.80;;;7.80;;
51985;SDS011;38002;53.296;6.600;2022-08-19T20:52:04;8.30;;;6.80;;
51985;SDS011;38002;53.296;6.600;2022-08-19T20:57:05;13.75;;;8.93;;
51985;SDS011;38002;53.296;6.600;2022-08-19T21:02:05;11.63;;;9.37;;
51985;SDS011;38002;53.296;6.600;2022-08-19T21:07:06;13.43;;;9.88;;
51985;SDS011;38002;53.296;6.600;2022-08-19T21:12:08;14.13;;;9.25;;
51985;SDS011;38002;53.296;6.600;2022-08-19T21:17:11;9.20;;;7.78;;
51985;SDS011;38002;53.296;6.600;2022-08-19T21:22:12;13.03;;;7.40;;
51985;SDS011;38002;53.296;6.600;2022-08-19T21:27:12;9.80;;;8.13;;
51985;SDS011;38002;53.296;6.600;2022-08-19T21:32:13;9.40;;;7.43;;
51985;SDS011;38002;53.296;6.600;2022-08-19T21:37:13;6.00;;;5.43;;
51985;SDS011;38002;53.296;6.600;2022-08-19T21:42:14;7.40;;;6.67;;
51985;SDS011;38002;53.296;6.600;2022-08-19T21:47:15;9.13;;;6.75;;
51985;SDS011;38002;53.296;6.600;2022-08-19T21:52:20;5.53;;;4.80;;
51985;SDS011;38002;53.296;6.600;2022-08-19T21:57:22;6.07;;;5.53;;
51985;SDS011;38002;53.296;6.600;2022-08-19T22:02:24;8.18;;;4.63;;
51985;SDS011;38002;53.296;6.600;2022-08-19T22:07:24;6.33;;;5.00;;
51985;SDS011;38002;53.296;6.600;2022-08-19T22:12:26;5.60;;;5.10;;
51985;SDS011;38002;53.296;6.600;2022-08-19T22:17:32;5.82;;;5.32;;
51985;SDS011;38002;53.296;6.600;2022-08-19T22:22:32;7.37;;;5.80;;
51985;SDS011;38002;53.296;6.600;2022-08-19T22:27:34;5.47;;;5.05;;
51985;SDS011;38002;53.296;6.600;2022-08-19T22:37:35;6.47;;;5.80;;
51985;SDS011;38002;53.296;6.600;2022-08-19T22:42:36;4.67;;;4.33;;
51985;SDS011;38002;53.296;6.600;2022-08-19T22:47:37;5.70;;;5.20;;
51985;SDS011;38002;53.296;6.600;2022-08-19T22:52:38;6.75;;;6.03;;
51985;SDS011;38002;53.296;6.600;2022-08-19T22:57:42;11.20;;;6.75;;
51985;SDS011;38002;53.296;6.600;2022-08-19T23:02:42;11.50;;;5.90;;
51985;SDS011;38002;53.296;6.600;2022-08-19T23:07:44;9.48;;;5.88;;
51985;SDS011;38002;53.296;6.600;2022-08-19T23:12:45;5.97;;;5.47;;
51985;SDS011;38002;53.296;6.600;2022-08-19T23:17:47;5.90;;;4.90;;
51985;SDS011;38002;53.296;6.600;2022-08-19T23:22:47;6.70;;;5.90;;
51985;SDS011;38002;53.296;6.600;2022-08-19T23:27:50;6.28;;;4.55;;
51985;SDS011;38002;53.296;6.600;2022-08-19T23:33:15;9.65;;;4.90;;
51985;SDS011;38002;53.296;6.600;2022-08-19T23:38:26;15.55;;;5.25;;
51985;SDS011;38002;53.296;6.600;2022-08-19T23:43:28;11.25;;;3.67;;
51985;SDS011;38002;53.296;6.600;2022-08-19T23:53:32;5.93;;;3.75;;
51985;SDS011;38002;53.296;6.600;2022-08-19T23:58:33;8.93;;;4.13;;
